»·PEaware :: AAL1077 KPHX-KLAS

AAL1077 :: KPHX-KLAS

FLIGHT INFORMATION

Flight Status: Arrived
Operator:
American Airlines
More flights by this operator :: More flights under this callsign
Pilot: Chandler S. (807)
Aircraft: AIRBUS A321
(A321)
More flights by this aircraft type
Origin: KPHX Phoenix Sky Harbor Intl
United States
Destination: KLAS McCarran Intl
United States
More flights between these airports :: More routes between these airports
Route: ZEPER1 SISIE IGM TYSSN5
File this flight plan on PilotEdge
Remarks:
Altitude:
(Current/Filed)
28,000ft
Speed:
(Current/Filed)
400kts
Departed: 16-May-20 03:20 PM
Arrived: 16-May-20 04:04 PM
Distance/Time
Traveled:
221nm/0:44
Distance/Time
To Go:
Arrived

Flight Plot

Page will automatically refresh every two minutes.


Map Options




Map Legend


Flown Route
Filed Route
Departure Airport
Arrival Airport
Navaid (VOR, NDB)
Fix

Horizontal Profiles

Position Reports

Time Latitude Longitude Heading Altitude Ground
Speed
16-May-20 15:03 33.437547 -111.998740 270 1140ft 0kts
16-May-20 15:04 33.437547 -111.998740 270 1140ft 0kts
16-May-20 15:05 33.437547 -111.998740 270 1140ft 0kts
16-May-20 15:06 33.437547 -111.998740 270 1140ft 0kts
16-May-20 15:07 33.437547 -111.998740 270 1140ft 0kts
16-May-20 15:08 33.437547 -111.998739 270 1140ft 0kts
16-May-20 15:09 33.437531 -111.998334 294 1140ft 2kts
16-May-20 15:10 33.437137 -111.998055 1 1140ft 0kts
16-May-20 15:11 33.437137 -111.998055 1 1140ft 0kts
16-May-20 15:12 33.438913 -111.998323 299 1140ft 13kts
16-May-20 15:13 33.439008 -112.005466 269 1140ft 27kts
16-May-20 15:14 33.438990 -112.013826 270 1140ft 23kts
16-May-20 15:15 33.439003 -112.022865 270 1140ft 28kts
16-May-20 15:16 33.439804 -112.029673 359 1140ft 0kts
16-May-20 15:17 33.439804 -112.029673 359 1140ft 0kts
16-May-20 15:18 33.440036 -112.029674 359 1140ft 8kts
16-May-20 15:19 33.440837 -112.006874 90 1252ft 188kts
16-May-20 15:20 33.438511 -111.937931 94 4411ft 231kts
16-May-20 15:21 33.447335 -111.860909 33 7575ft 256kts
16-May-20 15:22 33.519229 -111.852318 3 10708ft 277kts
16-May-20 15:23 33.598769 -111.843307 5 13726ft 298kts
16-May-20 15:24 33.682227 -111.841859 349 16734ft 305kts
16-May-20 15:25 33.754100 -111.882906 302 19417ft 300kts
16-May-20 15:26 33.803197 -111.965468 303 21827ft 308kts
16-May-20 15:27 33.853411 -112.048049 303 24207ft 304kts
16-May-20 15:28 33.905677 -112.133948 304 25494ft 329kts
16-May-20 15:29 33.959484 -112.222451 304 27506ft 324kts
16-May-20 15:30 34.015345 -112.314379 307 27902ft 366kts
16-May-20 15:31 34.095755 -112.403681 318 27901ft 422kts
16-May-20 15:32 34.192750 -112.500534 318 27948ft 449kts
16-May-20 15:33 34.288873 -112.597408 318 28058ft 454kts
16-May-20 15:34 34.387471 -112.697497 318 28083ft 463kts
16-May-20 15:35 34.486580 -112.798378 318 28084ft 466kts
16-May-20 15:36 34.585524 -112.899788 316 28084ft 465kts
16-May-20 15:37 34.681675 -113.005303 315 28084ft 465kts
16-May-20 15:38 34.777606 -113.110501 315 28078ft 466kts
16-May-20 15:39 34.874130 -113.216491 315 28047ft 467kts
16-May-20 15:40 34.969397 -113.324041 309 28012ft 466kts
16-May-20 15:41 35.039187 -113.455049 297 28004ft 459kts
16-May-20 15:42 35.101960 -113.591026 297 28003ft 457kts
16-May-20 15:43 35.165461 -113.727674 296 26671ft 457kts
16-May-20 15:44 35.227760 -113.862999 296 24941ft 452kts
16-May-20 15:45 35.308302 -113.979405 319 22913ft 447kts
16-May-20 15:46 35.403258 -114.066855 319 20361ft 397kts
16-May-20 15:47 35.486432 -114.144341 320 17953ft 361kts
16-May-20 15:48 35.564195 -114.216833 320 16376ft 344kts
16-May-20 15:49 35.638999 -114.286721 320 14838ft 328kts
16-May-20 15:50 35.711475 -114.354639 321 12479ft 323kts
16-May-20 15:51 35.788609 -114.405458 338 11928ft 302kts
16-May-20 15:52 35.866238 -114.441385 338 11912ft 310kts
16-May-20 15:53 35.948155 -114.479712 338 11462ft 315kts
16-May-20 15:54 36.024666 -114.515826 332 10004ft 270kts
16-May-20 15:55 36.050592 -114.595655 280 9094ft 265kts
16-May-20 15:56 36.065341 -114.683427 281 8008ft 248kts
16-May-20 15:57 36.073148 -114.764689 270 7502ft 239kts
16-May-20 15:58 36.073240 -114.847929 270 6479ft 233kts
16-May-20 15:59 36.073320 -114.928862 270 4910ft 220kts
16-May-20 16:00 36.073358 -115.000441 270 3811ft 197kts
16-May-20 16:01 36.073564 -115.063028 271 3291ft 171kts
16-May-20 16:03 36.073642 -115.121943 268 2263ft 167kts
16-May-20 16:04 36.074988 -115.151018 317 2150ft 18kts
16-May-20 16:05 36.077078 -115.151570 32 2150ft 27kts
16-May-20 16:06 36.078306 -115.144321 95 2150ft 22kts
16-May-20 16:07 36.080079 -115.137963 58 2150ft 16kts
16-May-20 16:08 36.080230 -115.136172 61 2150ft 0kts
16-May-20 16:09 36.080230 -115.136172 61 2150ft 0kts
16-May-20 16:10 36.080230 -115.136172 61 2150ft 0kts
16-May-20 16:11 36.080230 -115.136172 61 2150ft 0kts

Navigation Log

Ident Type
Flight plan parsing failed, navigation log unavailable